createdAt,value
2023-05-12T00:01:46.265Z,77.04
2023-05-12T00:04:12.832Z,77.06
2023-05-12T00:06:39.342Z,76.83
2023-05-12T00:09:06.161Z,76.83
2023-05-12T00:11:32.676Z,76.89
2023-05-12T00:13:59.258Z,76.43
2023-05-12T00:16:25.891Z,76.30
2023-05-12T00:18:52.395Z,76.34
2023-05-12T00:21:18.990Z,76.12
2023-05-12T00:23:45.577Z,76.15
2023-05-12T00:26:12.033Z,75.83
2023-05-12T00:28:38.972Z,76.18
2023-05-12T00:31:05.631Z,76.47
2023-05-12T00:33:32.444Z,76.77
2023-05-12T00:36:01.160Z,76.75
2023-05-12T00:38:27.908Z,76.74
2023-05-12T00:40:54.335Z,77.10
2023-05-12T00:43:20.757Z,77.28
2023-05-12T00:45:47.487Z,77.03
2023-05-12T00:48:13.973Z,77.06
2023-05-12T00:50:40.579Z,77.09
2023-05-12T00:53:07.692Z,77.13
2023-05-12T00:55:34.161Z,76.54
2023-05-12T00:58:00.668Z,76.32
2023-05-12T01:00:28.174Z,76.44
2023-05-12T01:02:58.389Z,76.47
2023-05-12T01:05:35.987Z,76.09
2023-05-12T01:08:03.253Z,76.33
2023-05-12T01:10:29.784Z,76.84
2023-05-12T01:12:57.066Z,76.99
2023-05-12T01:15:23.870Z,76.91
2023-05-12T01:17:57.755Z,77.72
2023-05-12T01:20:26.906Z,77.76
2023-05-12T01:22:55.100Z,77.52
2023-05-12T01:25:23.838Z,76.94
2023-05-12T01:27:50.530Z,77.08
2023-05-12T01:30:18.534Z,77.44
2023-05-12T01:32:45.363Z,77.60
2023-05-12T01:35:12.106Z,77.79
2023-05-12T01:37:44.074Z,77.30
2023-05-12T01:40:10.632Z,77.55
2023-05-12T01:42:39.286Z,77.91
2023-05-12T01:45:07.461Z,78.27
2023-05-12T01:47:33.883Z,77.81
2023-05-12T01:50:06.909Z,77.80
2023-05-12T01:52:33.481Z,77.99
2023-05-12T01:55:00.211Z,77.80
2023-05-12T01:57:29.762Z,77.39
2023-05-12T01:59:58.826Z,77.46
2023-05-12T02:02:30.136Z,77.22
2023-05-12T02:04:56.893Z,77.80
2023-05-12T02:07:23.315Z,78.68
2023-05-12T02:09:50.055Z,78.23
2023-05-12T02:12:17.240Z,78.22
2023-05-12T02:14:43.694Z,78.38
2023-05-12T02:17:10.348Z,77.67
2023-05-12T02:19:36.875Z,77.64
2023-05-12T02:22:03.436Z,77.68
2023-05-12T02:24:29.858Z,77.63
2023-05-12T02:26:56.277Z,77.77
2023-05-12T02:29:23.046Z,77.67
2023-05-12T02:31:49.527Z,78.13
2023-05-12T02:34:17.293Z,78.11
2023-05-12T02:36:43.766Z,77.81
2023-05-12T02:39:11.612Z,77.94
2023-05-12T02:41:38.053Z,77.88
2023-05-12T02:44:04.641Z,77.72
2023-05-12T02:46:31.176Z,77.55
2023-05-12T02:48:57.644Z,77.92
2023-05-12T02:51:24.094Z,77.50
2023-05-12T02:53:51.594Z,77.43
2023-05-12T02:56:18.307Z,77.94
2023-05-12T02:58:45.675Z,78.14
2023-05-12T03:01:12.222Z,77.62
2023-05-12T03:03:40.809Z,77.81
2023-05-12T03:06:08.113Z,77.76
2023-05-12T03:08:34.759Z,77.80
2023-05-12T03:11:01.407Z,78.86
2023-05-12T03:13:28.007Z,79.02
2023-05-12T03:15:54.673Z,78.63
2023-05-12T03:18:21.344Z,79.15
2023-05-12T03:20:48.012Z,78.92
2023-05-12T03:23:14.546Z,78.79
2023-05-12T03:25:41.012Z,79.18
2023-05-12T03:28:07.514Z,79.17
2023-05-12T03:30:34.254Z,79.40
2023-05-12T03:33:00.921Z,79.45
2023-05-12T03:35:27.806Z,79.63
2023-05-12T03:37:54.283Z,79.79
2023-05-12T03:40:21.003Z,79.93
2023-05-12T03:42:47.920Z,79.79
2023-05-12T03:45:14.474Z,79.47
2023-05-12T03:47:41.143Z,79.31
2023-05-12T03:50:08.667Z,79.27
2023-05-12T03:52:38.230Z,79.37
2023-05-12T03:55:06.911Z,78.92
2023-05-12T03:57:34.369Z,79.31
2023-05-12T04:00:01.026Z,79.13
2023-05-12T04:02:28.253Z,78.85
2023-05-12T04:04:54.816Z,78.80
2023-05-12T04:07:21.590Z,79.09
2023-05-12T04:09:48.057Z,79.08
2023-05-12T04:12:14.584Z,79.17
2023-05-12T04:14:43.200Z,79.14
2023-05-12T04:17:10.463Z,79.14
2023-05-12T04:19:36.848Z,79.12
2023-05-12T04:22:03.650Z,78.99
2023-05-12T04:24:31.186Z,79.18
2023-05-12T04:26:57.995Z,79.36
2023-05-12T04:29:24.732Z,79.07
2023-05-12T04:31:51.231Z,79.15
2023-05-12T04:34:17.776Z,78.68
2023-05-12T04:36:44.175Z,78.92
2023-05-12T04:39:10.756Z,79.00
2023-05-12T04:41:37.220Z,79.14
2023-05-12T04:44:03.966Z,78.93
2023-05-12T04:46:30.938Z,79.11
2023-05-12T04:48:57.444Z,78.70
2023-05-12T04:51:24.673Z,79.31
2023-05-12T04:53:51.104Z,79.37
2023-05-12T04:56:18.607Z,78.58
2023-05-12T04:58:45.136Z,78.39
2023-05-12T05:01:12.517Z,77.82
2023-05-12T05:03:40.111Z,78.36
2023-05-12T05:06:07.134Z,78.04
2023-05-12T05:08:33.708Z,78.25
2023-05-12T05:11:00.204Z,78.23
2023-05-12T05:13:28.167Z,78.76
2023-05-12T05:15:55.083Z,78.80
2023-05-12T05:18:24.363Z,79.55
2023-05-12T05:20:57.728Z,78.80
2023-05-12T05:23:24.753Z,79.09
2023-05-12T05:25:51.505Z,79.11
2023-05-12T05:28:18.037Z,79.00
2023-05-12T05:30:44.539Z,79.16
2023-05-12T05:33:13.035Z,78.82
2023-05-12T05:35:39.669Z,78.71
2023-05-12T05:38:06.337Z,79.26
2023-05-12T05:40:44.883Z,78.66
2023-05-12T05:43:18.348Z,78.51
2023-05-12T05:45:44.804Z,78.26
2023-05-12T05:48:11.451Z,78.07
2023-05-12T05:50:37.915Z,78.35
2023-05-12T05:53:04.360Z,77.51
2023-05-12T05:55:30.838Z,77.46
2023-05-12T05:57:57.458Z,77.34
2023-05-12T06:00:24.411Z,77.32
2023-05-12T06:02:51.973Z,77.05
2023-05-12T06:05:20.881Z,76.77
2023-05-12T06:07:48.172Z,76.14
2023-05-12T06:10:14.654Z,76.32
2023-05-12T06:12:41.389Z,76.69
2023-05-12T06:15:08.472Z,76.35
2023-05-12T06:17:35.025Z,76.27
2023-05-12T06:20:02.835Z,76.01
2023-05-12T06:22:29.280Z,75.33
2023-05-12T06:24:55.706Z,74.89
2023-05-12T06:27:22.208Z,75.07
2023-05-12T06:29:49.098Z,74.66
2023-05-12T06:32:15.584Z,74.74
2023-05-12T06:34:42.821Z,74.28
2023-05-12T06:37:09.383Z,73.55
2023-05-12T06:39:35.844Z,73.41
2023-05-12T06:42:02.314Z,72.85
2023-05-12T06:44:41.114Z,72.07
2023-05-12T06:47:08.433Z,72.04
2023-05-12T06:49:38.583Z,72.57
2023-05-12T06:52:06.573Z,73.47
2023-05-12T06:54:33.103Z,73.10
2023-05-12T06:56:59.576Z,72.84
2023-05-12T06:59:26.028Z,72.07
2023-05-12T07:01:52.681Z,72.14
2023-05-12T07:04:19.266Z,71.19
2023-05-12T07:06:45.719Z,71.60
2023-05-12T07:09:12.700Z,71.09
2023-05-12T07:11:39.112Z,69.79
2023-05-12T07:14:05.500Z,69.76
2023-05-12T07:16:32.432Z,70.06
2023-05-12T07:18:58.976Z,69.88
2023-05-12T07:21:25.415Z,68.44
2023-05-12T07:23:51.837Z,68.16
2023-05-12T07:26:18.623Z,67.62
2023-05-12T07:28:45.101Z,67.36
2023-05-12T07:31:11.608Z,67.90
2023-05-12T07:33:38.283Z,65.83
2023-05-12T07:36:05.010Z,65.96
2023-05-12T07:38:32.032Z,65.51
2023-05-12T07:41:00.459Z,65.31
2023-05-12T07:43:27.101Z,66.10
2023-05-12T07:45:54.627Z,65.83
2023-05-12T07:48:21.018Z,66.38
2023-05-12T07:50:47.644Z,65.94
2023-05-12T07:53:14.128Z,63.55
2023-05-12T07:55:41.170Z,65.41
2023-05-12T07:58:07.664Z,63.19
2023-05-12T08:00:34.361Z,63.86
2023-05-12T08:03:00.908Z,64.23
2023-05-12T08:05:27.478Z,64.29
2023-05-12T08:07:53.906Z,64.82
2023-05-12T08:10:20.394Z,65.02
2023-05-12T08:12:46.890Z,64.91
2023-05-12T08:15:13.465Z,64.08
2023-05-12T08:17:39.960Z,64.24
2023-05-12T08:20:07.168Z,63.95
2023-05-12T08:22:33.795Z,65.49
2023-05-12T08:25:00.344Z,64.58
2023-05-12T08:27:27.248Z,63.10
2023-05-12T08:29:53.878Z,63.50
2023-05-12T08:32:20.398Z,63.47
2023-05-12T08:34:46.911Z,63.94
2023-05-12T08:37:13.437Z,63.09
2023-05-12T08:39:40.557Z,62.97
2023-05-12T08:42:22.179Z,63.20
2023-05-12T08:44:49.169Z,62.87
2023-05-12T08:47:20.045Z,60.77
2023-05-12T08:49:54.530Z,62.43
2023-05-12T08:52:22.164Z,62.33
2023-05-12T08:54:56.139Z,62.87
2023-05-12T08:57:24.530Z,61.18
2023-05-12T08:59:54.510Z,60.10
2023-05-12T09:02:24.723Z,59.90
2023-05-12T09:04:52.192Z,60.23
2023-05-12T09:07:19.577Z,59.52
2023-05-12T09:09:48.819Z,57.97
2023-05-12T09:12:18.199Z,60.01
2023-05-12T09:14:46.842Z,58.62
2023-05-12T09:17:14.034Z,58.81
2023-05-12T09:19:40.527Z,58.96
2023-05-12T09:22:07.900Z,58.84
2023-05-12T09:24:38.940Z,58.24
2023-05-12T09:27:05.898Z,57.83
2023-05-12T09:29:37.513Z,57.84
2023-05-12T09:32:11.668Z,58.75
2023-05-12T09:34:40.872Z,58.17
2023-05-12T09:37:08.155Z,57.34
2023-05-12T09:39:36.199Z,58.06
2023-05-12T09:42:02.678Z,59.76
2023-05-12T09:44:29.955Z,58.65
2023-05-12T09:47:05.443Z,59.17
2023-05-12T09:49:31.985Z,59.68
2023-05-12T09:51:59.238Z,60.08
2023-05-12T09:54:26.383Z,60.64
2023-05-12T09:56:55.305Z,59.46
2023-05-12T09:59:26.683Z,58.14
2023-05-12T10:01:58.117Z,59.79
2023-05-12T10:04:25.150Z,59.50
2023-05-12T10:06:52.694Z,59.08
2023-05-12T10:09:34.166Z,58.45
2023-05-12T10:12:02.986Z,57.73
2023-05-12T10:14:29.960Z,57.59
2023-05-12T10:16:57.598Z,56.43
2023-05-12T10:19:25.672Z,55.92
2023-05-12T10:21:52.942Z,56.39
2023-05-12T10:24:21.989Z,57.06
2023-05-12T10:26:49.315Z,56.77
2023-05-12T10:29:17.042Z,56.66
2023-05-12T10:31:46.521Z,57.33
2023-05-12T10:34:21.565Z,57.51
2023-05-12T10:36:50.127Z,57.17
2023-05-12T10:39:16.863Z,55.15
2023-05-12T10:41:43.400Z,55.23
2023-05-12T10:44:10.821Z,54.49
2023-05-12T10:46:37.610Z,53.95
2023-05-12T10:49:10.043Z,54.24
2023-05-12T10:51:45.371Z,54.55
2023-05-12T10:54:18.359Z,53.30
2023-05-12T10:56:45.398Z,52.52
2023-05-12T10:59:20.644Z,52.22
2023-05-12T11:02:29.018Z,53.44
2023-05-12T11:04:58.340Z,53.54
2023-05-12T11:07:27.811Z,52.77
2023-05-12T11:09:59.115Z,54.02
2023-05-12T11:12:32.456Z,54.15
2023-05-12T11:15:01.284Z,52.98
2023-05-12T11:17:27.750Z,52.23
2023-05-12T11:19:55.667Z,52.61
2023-05-12T11:22:23.374Z,51.43
2023-05-12T11:24:51.065Z,54.24
2023-05-12T11:27:19.826Z,52.13
2023-05-12T11:29:59.918Z,51.33
2023-05-12T11:32:27.358Z,51.24
2023-05-12T11:34:53.890Z,54.15
2023-05-12T11:37:21.234Z,53.80
2023-05-12T11:39:48.106Z,51.24
2023-05-12T11:42:16.241Z,54.96
2023-05-12T11:44:49.839Z,51.08
2023-05-12T11:47:19.722Z,50.10
2023-05-12T11:49:50.250Z,49.63
2023-05-12T11:52:17.574Z,45.38
2023-05-12T11:54:51.978Z,48.43
2023-05-12T11:57:27.103Z,49.38
2023-05-12T12:00:04.023Z,48.13
2023-05-12T12:02:33.344Z,51.09
2023-05-12T12:05:00.519Z,51.53
2023-05-12T12:07:31.777Z,50.98
2023-05-12T12:09:59.149Z,51.04
2023-05-12T12:12:25.696Z,51.36
2023-05-12T12:14:52.116Z,51.74
2023-05-12T12:17:18.540Z,51.44
2023-05-12T12:19:44.980Z,50.76
2023-05-12T12:22:11.641Z,50.11
2023-05-12T12:24:38.051Z,50.57
2023-05-12T12:27:05.380Z,49.40
2023-05-12T12:29:31.826Z,50.60
2023-05-12T12:31:58.242Z,50.34
2023-05-12T12:34:24.759Z,50.47
2023-05-12T12:36:51.802Z,51.95
2023-05-12T12:39:19.947Z,52.47
2023-05-12T12:41:47.951Z,51.81
2023-05-12T12:44:14.487Z,51.79
2023-05-12T12:46:40.919Z,52.19
2023-05-12T12:49:07.460Z,52.06
2023-05-12T12:51:45.168Z,52.09
2023-05-12T12:54:13.124Z,52.74
2023-05-12T12:56:39.566Z,53.09
2023-05-12T12:59:06.356Z,54.15
2023-05-12T13:01:33.950Z,56.86
2023-05-12T13:04:01.098Z,58.16
2023-05-12T13:06:27.730Z,58.18
2023-05-12T13:08:54.162Z,60.45
2023-05-12T13:11:20.608Z,61.74
2023-05-12T13:13:47.161Z,63.13
2023-05-12T13:16:13.847Z,63.37
2023-05-12T13:18:40.359Z,63.69
2023-05-12T13:21:06.873Z,64.98
2023-05-12T13:23:33.300Z,65.39
2023-05-12T13:25:59.788Z,64.35
2023-05-12T13:28:26.270Z,64.96
2023-05-12T13:30:53.013Z,64.10
2023-05-12T13:33:19.970Z,64.33
2023-05-12T13:35:47.170Z,64.35
2023-05-12T13:38:13.788Z,63.13
2023-05-12T13:40:41.460Z,63.00
2023-05-12T13:43:08.538Z,63.39
2023-05-12T13:45:34.944Z,64.10
2023-05-12T13:48:01.393Z,63.43
2023-05-12T13:50:27.914Z,63.30
2023-05-12T13:52:54.317Z,62.99
2023-05-12T13:55:21.572Z,61.87
2023-05-12T13:57:48.908Z,61.61
2023-05-12T14:00:17.219Z,62.81
2023-05-12T14:02:46.763Z,61.43
2023-05-12T14:05:13.309Z,60.01
2023-05-12T14:07:39.827Z,59.29
2023-05-12T14:10:06.916Z,59.86
2023-05-12T14:12:33.364Z,57.88
2023-05-12T14:15:11.936Z,57.58
2023-05-12T14:17:46.425Z,59.23
2023-05-12T14:20:13.019Z,59.16
2023-05-12T14:22:39.491Z,61.87
2023-05-12T14:25:06.378Z,63.46
2023-05-12T14:27:32.785Z,62.92
2023-05-12T14:29:59.222Z,62.65
2023-05-12T14:32:25.708Z,62.39
2023-05-12T14:34:52.160Z,63.43
2023-05-12T14:37:18.594Z,63.92
2023-05-12T14:39:45.079Z,63.54
2023-05-12T14:42:11.836Z,63.06
2023-05-12T14:44:38.250Z,62.51
2023-05-12T14:47:05.934Z,62.63
2023-05-12T14:49:33.881Z,62.23
2023-05-12T14:52:00.277Z,61.91
2023-05-12T14:54:26.886Z,54.12
2023-05-12T14:56:53.392Z,49.67
2023-05-12T14:59:22.717Z,47.48
2023-05-12T15:01:49.205Z,48.31
2023-05-12T15:04:16.210Z,50.10
2023-05-12T15:06:42.679Z,50.14
2023-05-12T15:09:09.715Z,48.21
2023-05-12T15:11:36.900Z,48.95
2023-05-12T15:14:04.820Z,48.88
2023-05-12T15:16:33.188Z,48.21
2023-05-12T15:19:05.560Z,42.36
2023-05-12T15:21:34.760Z,42.62
2023-05-12T15:24:02.109Z,39.84
2023-05-12T15:26:33.838Z,38.22
2023-05-12T15:29:01.911Z,39.71
2023-05-12T15:31:29.391Z,41.02
2023-05-12T15:33:56.689Z,37.69
2023-05-12T15:36:23.170Z,39.50
2023-05-12T15:38:49.586Z,41.02
2023-05-12T15:41:16.037Z,44.05
2023-05-12T15:43:42.475Z,44.88
2023-05-12T15:46:10.602Z,45.81
2023-05-12T15:48:37.479Z,45.56
2023-05-12T15:51:04.136Z,48.42
2023-05-12T15:53:31.013Z,49.20
2023-05-12T15:56:04.508Z,47.71
2023-05-12T15:58:31.393Z,45.18
2023-05-12T16:00:58.155Z,43.58
2023-05-12T16:03:24.858Z,43.92
2023-05-12T16:05:51.730Z,45.09
2023-05-12T16:08:18.444Z,45.87
2023-05-12T16:10:44.916Z,45.74
2023-05-12T16:13:11.369Z,47.05
2023-05-12T16:15:37.935Z,46.00
2023-05-12T16:18:05.863Z,46.13
2023-05-12T16:20:33.674Z,48.52
2023-05-12T16:23:00.248Z,49.61
2023-05-12T16:25:26.764Z,50.63
2023-05-12T16:27:53.484Z,51.01
2023-05-12T16:30:20.445Z,52.37
2023-05-12T16:32:47.392Z,53.36
2023-05-12T16:35:14.163Z,54.18
2023-05-12T16:37:41.124Z,55.16
2023-05-12T16:40:08.164Z,54.94
2023-05-12T16:42:34.615Z,55.05
2023-05-12T16:45:01.095Z,56.44
2023-05-12T16:47:27.518Z,56.13
2023-05-12T16:49:53.938Z,56.27
2023-05-12T16:52:20.721Z,57.28
2023-05-12T16:54:47.740Z,57.57
2023-05-12T16:57:14.201Z,57.49
2023-05-12T16:59:40.696Z,57.72
2023-05-12T17:02:08.334Z,57.83
2023-05-12T17:04:35.026Z,58.40
2023-05-12T17:07:01.511Z,59.47
2023-05-12T17:09:28.362Z,59.84
2023-05-12T17:11:54.834Z,58.69
2023-05-12T17:14:21.286Z,59.05
2023-05-12T17:16:47.716Z,59.04
2023-05-12T17:19:14.892Z,60.21
2023-05-12T17:21:42.285Z,61.16
2023-05-12T17:24:08.997Z,61.57
2023-05-12T17:26:35.623Z,62.12
2023-05-12T17:29:02.411Z,62.02
2023-05-12T17:31:29.025Z,63.47
2023-05-12T17:33:55.685Z,63.40
2023-05-12T17:36:22.176Z,64.26
2023-05-12T17:38:50.048Z,63.91
2023-05-12T17:41:16.602Z,64.87
2023-05-12T17:43:43.061Z,64.52
2023-05-12T17:46:09.828Z,65.08
2023-05-12T17:48:36.569Z,65.14
2023-05-12T17:51:03.378Z,65.60
2023-05-12T17:53:31.190Z,65.05
2023-05-12T17:55:58.291Z,65.02
2023-05-12T17:58:24.727Z,65.69
2023-05-12T18:00:51.442Z,65.65
2023-05-12T18:03:23.053Z,66.61
2023-05-12T18:05:50.768Z,67.15
2023-05-12T18:08:17.447Z,67.05
2023-05-12T18:10:44.113Z,67.54
2023-05-12T18:13:10.879Z,66.79
2023-05-12T18:15:37.473Z,66.57
2023-05-12T18:18:04.313Z,66.82
2023-05-12T18:20:30.955Z,67.33
2023-05-12T18:22:57.423Z,67.18
2023-05-12T18:25:23.912Z,66.92
2023-05-12T18:27:50.387Z,66.67
2023-05-12T18:30:16.888Z,66.65
2023-05-12T18:32:43.323Z,66.61
2023-05-12T18:35:10.134Z,67.17
2023-05-12T18:37:36.662Z,67.35
2023-05-12T18:40:05.040Z,67.73
2023-05-12T18:42:31.518Z,67.79
2023-05-12T18:44:57.944Z,67.88
2023-05-12T18:47:24.393Z,68.36
2023-05-12T18:49:50.938Z,68.39
2023-05-12T18:52:17.535Z,68.28
2023-05-12T18:54:46.903Z,68.34
2023-05-12T18:57:15.336Z,68.43
2023-05-12T18:59:41.783Z,68.51
2023-05-12T19:02:08.340Z,68.68
2023-05-12T19:04:34.931Z,69.52
2023-05-12T19:07:01.445Z,69.45
2023-05-12T19:09:27.909Z,68.93
2023-05-12T19:11:54.367Z,69.29
2023-05-12T19:14:21.192Z,69.64
2023-05-12T19:16:47.729Z,69.30
2023-05-12T19:19:14.410Z,69.51
2023-05-12T19:21:40.939Z,69.61
2023-05-12T19:24:08.398Z,70.28
2023-05-12T19:26:34.904Z,70.55
2023-05-12T19:29:02.041Z,70.94
2023-05-12T19:31:28.684Z,71.53
2023-05-12T19:33:55.248Z,71.36
2023-05-12T19:36:21.710Z,71.16
2023-05-12T19:38:48.139Z,72.00
2023-05-12T19:41:14.535Z,71.97
2023-05-12T19:43:40.999Z,71.95
2023-05-12T19:46:07.702Z,72.52
2023-05-12T19:48:34.286Z,72.47
2023-05-12T19:51:00.722Z,72.21
2023-05-12T19:53:27.194Z,72.15
2023-05-12T19:55:53.857Z,72.30
2023-05-12T19:58:20.285Z,72.89
2023-05-12T20:00:46.683Z,72.67
2023-05-12T20:03:13.252Z,72.40
2023-05-12T20:05:41.050Z,72.56
2023-05-12T20:08:07.458Z,72.39
2023-05-12T20:10:33.869Z,72.28
2023-05-12T20:13:03.397Z,72.40
2023-05-12T20:15:31.192Z,71.85
2023-05-12T20:17:58.157Z,72.52
2023-05-12T20:20:24.746Z,73.00
2023-05-12T20:22:51.873Z,72.64
2023-05-12T20:25:19.479Z,73.17
2023-05-12T20:27:46.282Z,72.88
2023-05-12T20:30:12.929Z,72.50
2023-05-12T20:32:39.762Z,73.28
2023-05-12T20:35:06.443Z,72.82
2023-05-12T20:37:33.279Z,72.81
2023-05-12T20:39:59.752Z,72.37
2023-05-12T20:42:26.169Z,72.66
2023-05-12T20:44:52.585Z,73.03
2023-05-12T20:47:19.204Z,72.85
2023-05-12T20:49:45.686Z,72.87
2023-05-12T20:52:12.164Z,73.12
2023-05-12T20:54:38.770Z,72.84
2023-05-12T20:57:05.618Z,73.40
2023-05-12T20:59:32.257Z,73.21
2023-05-12T21:01:58.986Z,73.32
2023-05-12T21:04:26.039Z,73.35
2023-05-12T21:06:53.786Z,73.27
2023-05-12T21:09:20.590Z,72.92
2023-05-12T21:11:47.304Z,73.60
2023-05-12T21:14:13.913Z,73.82
2023-05-12T21:16:40.642Z,74.61
2023-05-12T21:19:07.442Z,74.29
2023-05-12T21:21:34.264Z,73.96
2023-05-12T21:24:00.931Z,73.98
2023-05-12T21:26:27.549Z,74.13
2023-05-12T21:28:54.278Z,73.70
2023-05-12T21:31:20.896Z,73.29
2023-05-12T21:33:48.158Z,73.83
2023-05-12T21:36:14.815Z,73.89
2023-05-12T21:38:41.524Z,74.11
2023-05-12T21:41:08.132Z,74.38
2023-05-12T21:43:34.594Z,74.19
2023-05-12T21:46:05.207Z,74.41
2023-05-12T21:48:32.122Z,73.99
2023-05-12T21:51:00.270Z,74.36
2023-05-12T21:53:27.125Z,74.08
2023-05-12T21:55:53.708Z,74.21
2023-05-12T21:58:20.328Z,74.42
2023-05-12T22:00:46.764Z,74.65
2023-05-12T22:03:13.292Z,74.71
2023-05-12T22:05:39.929Z,74.27
2023-05-12T22:08:06.365Z,74.37
2023-05-12T22:10:32.783Z,74.12
2023-05-12T22:12:59.202Z,74.32
2023-05-12T22:15:25.615Z,74.36
2023-05-12T22:17:52.082Z,74.06
2023-05-12T22:20:19.119Z,74.41
2023-05-12T22:22:45.645Z,74.54
2023-05-12T22:25:12.133Z,74.44
2023-05-12T22:27:38.609Z,74.69
2023-05-12T22:30:05.878Z,75.02
2023-05-12T22:32:32.567Z,74.80
2023-05-12T22:34:59.088Z,74.79
2023-05-12T22:37:25.581Z,74.30
2023-05-12T22:39:51.968Z,74.90
2023-05-12T22:42:18.404Z,74.64
2023-05-12T22:44:44.852Z,74.92
2023-05-12T22:47:11.678Z,74.62
2023-05-12T22:49:38.608Z,74.65
2023-05-12T22:52:05.795Z,74.98
2023-05-12T22:54:32.300Z,74.96
2023-05-12T22:56:58.717Z,74.71
2023-05-12T22:59:25.131Z,75.35
2023-05-12T23:01:51.554Z,74.99
2023-05-12T23:04:18.089Z,74.56
2023-05-12T23:06:44.596Z,74.64
2023-05-12T23:09:11.046Z,74.24
2023-05-12T23:11:37.526Z,74.81
2023-05-12T23:14:04.110Z,74.71
2023-05-12T23:16:30.615Z,74.97
2023-05-12T23:18:57.182Z,75.16
2023-05-12T23:21:23.632Z,75.02
2023-05-12T23:23:50.092Z,75.03
2023-05-12T23:26:16.729Z,74.60
2023-05-12T23:28:43.213Z,75.23
2023-05-12T23:31:10.154Z,75.08
2023-05-12T23:33:36.706Z,74.84
2023-05-12T23:36:03.372Z,74.83
2023-05-12T23:38:29.889Z,74.51
2023-05-12T23:40:56.336Z,74.40
2023-05-12T23:43:22.763Z,74.32
2023-05-12T23:45:49.325Z,74.21
2023-05-12T23:48:15.801Z,74.53
2023-05-12T23:50:42.286Z,74.89
2023-05-12T23:53:08.703Z,74.64
2023-05-12T23:55:36.896Z,74.20
2023-05-12T23:58:03.481Z,74.27
